Terminal Aerodrome Forecast
Issued by NWS

Home | Current Version | Previous Version | Text Only | Print | Product List | Glossary On
Versions: 1 2 3 4 5 6 7 8 9 10 11 12 13 14 15 16 17 18
000
FTUS43 KDVN 151400 AAA
TAFCID
TAF AMD
KCID 151417Z 1514/1612 VRB05KT P6SM VCSH SCT090
     FM151630 35012KT P6SM VCSH OVC025
      TEMPO 1517/1519 -SHRA
     FM152000 36014KT P6SM BKN040
     FM160000 34003KT P6SM SKC=

USA.gov is the U.S. government's official web portal to all federal, state and local government web resources and services.